sensor_id;sensor_type;location;lat;lon;timestamp;pressure;altitude;pressure_sealevel;temperature;humidity
50057;BME280;36875;49.468;11.200;2022-07-29T00:02:23;97835.34;;;24.01;45.76
50057;BME280;36875;49.468;11.200;2022-07-29T00:04:50;97824.34;;;24.01;45.75
50057;BME280;36875;49.468;11.200;2022-07-29T00:07:16;97811.75;;;24.00;45.92
50057;BME280;36875;49.468;11.200;2022-07-29T00:09:41;97813.34;;;24.01;45.59
50057;BME280;36875;49.468;11.200;2022-07-29T00:12:07;97807.06;;;24.01;45.74
50057;BME280;36875;49.468;11.200;2022-07-29T00:14:33;97795.25;;;24.00;45.80
50057;BME280;36875;49.468;11.200;2022-07-29T00:16:58;97799.63;;;24.01;45.87
50057;BME280;36875;49.468;11.200;2022-07-29T00:19:24;97809.00;;;24.00;45.79
50057;BME280;36875;49.468;11.200;2022-07-29T00:21:51;97796.88;;;24.01;45.64
50057;BME280;36875;49.468;11.200;2022-07-29T00:24:16;97799.16;;;23.99;45.72
50057;BME280;36875;49.468;11.200;2022-07-29T00:26:42;97794.00;;;23.98;46.17
50057;BME280;36875;49.468;11.200;2022-07-29T00:29:08;97795.25;;;24.00;45.89
50057;BME280;36875;49.468;11.200;2022-07-29T00:31:33;97800.75;;;24.00;45.70
50057;BME280;36875;49.468;11.200;2022-07-29T00:33:59;97797.19;;;24.00;45.76
50057;BME280;36875;49.468;11.200;2022-07-29T00:36:24;97797.19;;;24.00;45.69
50057;BME280;36875;49.468;11.200;2022-07-29T00:38:51;97796.41;;;23.99;45.80
50057;BME280;36875;49.468;11.200;2022-07-29T00:41:18;97799.94;;;24.00;45.97
50057;BME280;36875;49.468;11.200;2022-07-29T00:43:44;97793.66;;;23.99;46.01
50057;BME280;36875;49.468;11.200;2022-07-29T00:46:10;97794.44;;;24.00;45.65
50057;BME280;36875;49.468;11.200;2022-07-29T00:48:36;97788.16;;;23.99;45.92
50057;BME280;36875;49.468;11.200;2022-07-29T00:51:02;97789.75;;;24.00;45.76
50057;BME280;36875;49.468;11.200;2022-07-29T00:53:29;97783.47;;;24.00;45.75
50057;BME280;36875;49.468;11.200;2022-07-29T00:55:57;97770.88;;;23.99;45.84
50057;BME280;36875;49.468;11.200;2022-07-29T00:58:23;97773.63;;;23.99;45.96
50057;BME280;36875;49.468;11.200;2022-07-29T01:00:49;97770.88;;;23.99;45.91
50057;BME280;36875;49.468;11.200;2022-07-29T01:03:15;97771.66;;;23.99;45.70
50057;BME280;36875;49.468;11.200;2022-07-29T01:05:41;97773.97;;;23.97;45.73
50057;BME280;36875;49.468;11.200;2022-07-29T01:08:08;97763.41;;;23.99;45.87
50057;BME280;36875;49.468;11.200;2022-07-29T01:10:37;97768.47;;;23.97;45.65
50057;BME280;36875;49.468;11.200;2022-07-29T01:13:05;97764.56;;;23.98;45.70
50057;BME280;36875;49.468;11.200;2022-07-29T01:15:32;97764.56;;;23.98;45.82
50057;BME280;36875;49.468;11.200;2022-07-29T01:18:03;97764.56;;;23.98;45.86
50057;BME280;36875;49.468;11.200;2022-07-29T01:20:41;97761.81;;;23.98;45.58
50057;BME280;36875;49.468;11.200;2022-07-29T01:23:37;97756.31;;;23.98;45.75
50057;BME280;36875;49.468;11.200;2022-07-29T01:29:02;97756.44;;;23.90;45.73
50057;BME280;36875;49.468;11.200;2022-07-29T01:31:35;97770.06;;;23.98;45.78
50057;BME280;36875;49.468;11.200;2022-07-29T01:34:07;97786.09;;;23.96;45.76
50057;BME280;36875;49.468;11.200;2022-07-29T01:36:36;97790.44;;;23.97;45.63
50057;BME280;36875;49.468;11.200;2022-07-29T01:39:09;97793.19;;;23.97;45.69
50057;BME280;36875;49.468;11.200;2022-07-29T01:41:38;97791.25;;;23.98;45.58
50057;BME280;36875;49.468;11.200;2022-07-29T01:44:14;97782.09;;;23.94;45.97
50057;BME280;36875;49.468;11.200;2022-07-29T01:46:49;97783.34;;;23.96;45.60
50057;BME280;36875;49.468;11.200;2022-07-29T01:49:18;97779.47;;;23.97;45.70
50057;BME280;36875;49.468;11.200;2022-07-29T01:51:49;97789.66;;;23.97;45.77
50057;BME280;36875;49.468;11.200;2022-07-29T01:54:19;97781.75;;;23.95;45.72
50057;BME280;36875;49.468;11.200;2022-07-29T01:56:47;97779.78;;;23.96;45.73
50057;BME280;36875;49.468;11.200;2022-07-29T01:59:16;97770.75;;;23.95;45.76
50057;BME280;36875;49.468;11.200;2022-07-29T02:01:44;97771.53;;;23.96;45.91
50057;BME280;36875;49.468;11.200;2022-07-29T02:04:10;97749.19;;;23.85;45.69
50057;BME280;36875;49.468;11.200;2022-07-29T02:06:38;97773.50;;;23.95;45.89
50057;BME280;36875;49.468;11.200;2022-07-29T02:09:06;97767.19;;;23.95;45.61
50057;BME280;36875;49.468;11.200;2022-07-29T02:11:33;97773.50;;;23.95;45.68
50057;BME280;36875;49.468;11.200;2022-07-29T02:14:00;97773.50;;;23.95;45.74
50057;BME280;36875;49.468;11.200;2022-07-29T02:16:29;97765.25;;;23.95;45.50
50057;BME280;36875;49.468;11.200;2022-07-29T02:18:57;97769.94;;;23.95;45.89
50057;BME280;36875;49.468;11.200;2022-07-29T02:21:25;97769.94;;;23.95;45.80
50057;BME280;36875;49.468;11.200;2022-07-29T02:23:53;97769.94;;;23.95;45.86
50057;BME280;36875;49.468;11.200;2022-07-29T02:26:21;97772.91;;;23.90;45.62
50057;BME280;36875;49.468;11.200;2022-07-29T02:28:48;97783.66;;;23.95;45.88
50057;BME280;36875;49.468;11.200;2022-07-29T02:31:16;97775.44;;;23.95;45.80
50057;BME280;36875;49.468;11.200;2022-07-29T02:33:45;97780.13;;;23.94;45.82
50057;BME280;36875;49.468;11.200;2022-07-29T02:36:12;97780.94;;;23.95;45.97
50057;BME280;36875;49.468;11.200;2022-07-29T02:38:41;97774.63;;;23.94;45.94
50057;BME280;36875;49.468;11.200;2022-07-29T02:41:19;97761.22;;;23.93;45.87
50057;BME280;36875;49.468;11.200;2022-07-29T02:43:47;97762.84;;;23.94;45.77
50057;BME280;36875;49.468;11.200;2022-07-29T02:46:16;97757.22;;;23.90;45.86
50057;BME280;36875;49.468;11.200;2022-07-29T02:48:49;97762.84;;;23.94;46.14
50057;BME280;36875;49.468;11.200;2022-07-29T02:51:19;97762.06;;;23.93;45.72
50057;BME280;36875;49.468;11.200;2022-07-29T02:53:51;97762.84;;;23.94;45.75
50057;BME280;36875;49.468;11.200;2022-07-29T02:56:23;97757.34;;;23.94;45.79
50057;BME280;36875;49.468;11.200;2022-07-29T02:58:54;97761.22;;;23.93;45.73
50057;BME280;36875;49.468;11.200;2022-07-29T03:01:23;97763.19;;;23.92;45.73
50057;BME280;36875;49.468;11.200;2022-07-29T03:03:52;97770.28;;;23.93;45.85
50057;BME280;36875;49.468;11.200;2022-07-29T03:06:20;97771.09;;;23.94;45.83
50057;BME280;36875;49.468;11.200;2022-07-29T03:08:48;97772.22;;;23.93;45.81
50057;BME280;36875;49.468;11.200;2022-07-29T03:11:15;97761.09;;;23.89;45.73
50057;BME280;36875;49.468;11.200;2022-07-29T03:13:42;97766.25;;;23.91;45.82
50057;BME280;36875;49.468;11.200;2022-07-29T03:16:08;97754.56;;;23.81;45.65
50057;BME280;36875;49.468;11.200;2022-07-29T03:18:35;97765.13;;;23.92;45.83
50057;BME280;36875;49.468;11.200;2022-07-29T03:21:03;97754.56;;;23.81;46.15
50057;BME280;36875;49.468;11.200;2022-07-29T03:23:29;97764.31;;;23.91;45.90
50057;BME280;36875;49.468;11.200;2022-07-29T03:25:55;97771.44;;;23.92;45.79
50057;BME280;36875;49.468;11.200;2022-07-29T03:28:21;97746.97;;;23.78;45.83
50057;BME280;36875;49.468;11.200;2022-07-29T03:30:48;97758.81;;;23.91;45.68
50057;BME280;36875;49.468;11.200;2022-07-29T03:33:13;97763.50;;;23.91;45.85
50057;BME280;36875;49.468;11.200;2022-07-29T03:35:39;97751.47;;;23.83;45.60
50057;BME280;36875;49.468;11.200;2022-07-29T03:38:06;97752.28;;;23.83;45.77
50057;BME280;36875;49.468;11.200;2022-07-29T03:40:35;97768.22;;;23.90;45.87
50057;BME280;36875;49.468;11.200;2022-07-29T03:43:03;97771.31;;;23.89;45.95
50057;BME280;36875;49.468;11.200;2022-07-29T03:45:32;97768.22;;;23.90;45.56
50057;BME280;36875;49.468;11.200;2022-07-29T03:48:01;97772.56;;;23.91;46.05
50057;BME280;36875;49.468;11.200;2022-07-29T03:50:28;97769.81;;;23.91;45.79
50057;BME280;36875;49.468;11.200;2022-07-29T03:52:54;97773.72;;;23.90;45.94
50057;BME280;36875;49.468;11.200;2022-07-29T03:55:22;97747.78;;;23.79;45.74
50057;BME280;36875;49.468;11.200;2022-07-29T03:57:47;97772.91;;;23.90;45.94
50057;BME280;36875;49.468;11.200;2022-07-29T04:00:14;97773.72;;;23.90;45.87
50057;BME280;36875;49.468;11.200;2022-07-29T04:02:41;97753.63;;;23.77;45.76
50057;BME280;36875;49.468;11.200;2022-07-29T04:05:11;97770.16;;;23.90;45.86
50057;BME280;36875;49.468;11.200;2022-07-29T04:07:37;97774.84;;;23.89;45.83
50057;BME280;36875;49.468;11.200;2022-07-29T04:10:04;97762.72;;;23.90;45.82
50057;BME280;36875;49.468;11.200;2022-07-29T04:12:31;97772.91;;;23.90;45.59
50057;BME280;36875;49.468;11.200;2022-07-29T04:14:56;97771.31;;;23.89;45.95
50057;BME280;36875;49.468;11.200;2022-07-29T04:17:22;97774.84;;;23.89;45.88
50057;BME280;36875;49.468;11.200;2022-07-29T04:19:48;97767.44;;;23.90;45.75
50057;BME280;36875;49.468;11.200;2022-07-29T04:22:13;97766.59;;;23.89;45.86
50057;BME280;36875;49.468;11.200;2022-07-29T04:24:39;97767.75;;;23.88;45.51
50057;BME280;36875;49.468;11.200;2022-07-29T04:27:04;97771.31;;;23.89;45.83
50057;BME280;36875;49.468;11.200;2022-07-29T04:29:31;97774.38;;;23.87;45.96
50057;BME280;36875;49.468;11.200;2022-07-29T04:31:57;97774.06;;;23.89;45.69
50057;BME280;36875;49.468;11.200;2022-07-29T04:34:23;97779.88;;;23.87;45.68
50057;BME280;36875;49.468;11.200;2022-07-29T04:36:48;97781.50;;;23.88;45.73
50057;BME280;36875;49.468;11.200;2022-07-29T04:39:14;97784.91;;;23.85;45.76
50057;BME280;36875;49.468;11.200;2022-07-29T04:41:40;97792.50;;;23.88;45.74
50057;BME280;36875;49.468;11.200;2022-07-29T04:44:05;97789.75;;;23.88;45.82
50057;BME280;36875;49.468;11.200;2022-07-29T04:46:33;97798.00;;;23.88;45.54
50057;BME280;36875;49.468;11.200;2022-07-29T04:48:58;97794.44;;;23.88;45.88
50057;BME280;36875;49.468;11.200;2022-07-29T04:51:24;97799.13;;;23.87;45.70
50057;BME280;36875;49.468;11.200;2022-07-29T04:53:50;97803.47;;;23.88;45.94
50057;BME280;36875;49.468;11.200;2022-07-29T04:56:15;97803.47;;;23.88;45.94
50057;BME280;36875;49.468;11.200;2022-07-29T04:58:41;97806.22;;;23.88;45.92
50057;BME280;36875;49.468;11.200;2022-07-29T05:01:06;97802.69;;;23.88;45.81
50057;BME280;36875;49.468;11.200;2022-07-29T05:03:33;97802.69;;;23.88;45.86
50057;BME280;36875;49.468;11.200;2022-07-29T05:05:59;97813.69;;;23.88;45.94
50057;BME280;36875;49.468;11.200;2022-07-29T05:08:24;97808.19;;;23.88;45.65
50057;BME280;36875;49.468;11.200;2022-07-29T05:10:50;97812.84;;;23.87;46.01
50057;BME280;36875;49.468;11.200;2022-07-29T05:13:16;97804.16;;;23.85;46.00
50057;BME280;36875;49.468;11.200;2022-07-29T05:15:41;97807.38;;;23.87;45.74
50057;BME280;36875;49.468;11.200;2022-07-29T05:18:07;97806.56;;;23.86;45.53
50057;BME280;36875;49.468;11.200;2022-07-29T05:20:34;97807.38;;;23.87;45.90
50057;BME280;36875;49.468;11.200;2022-07-29T05:23:00;97813.69;;;23.88;45.64
50057;BME280;36875;49.468;11.200;2022-07-29T05:25:27;97807.38;;;23.87;45.76
50057;BME280;36875;49.468;11.200;2022-07-29T05:27:54;97817.22;;;23.88;45.77
50057;BME280;36875;49.468;11.200;2022-07-29T05:30:20;97816.06;;;23.89;45.58
50057;BME280;36875;49.468;11.200;2022-07-29T05:32:46;97809.44;;;23.90;45.67
50057;BME280;36875;49.468;11.200;2022-07-29T05:35:12;97814.59;;;23.92;45.62
50057;BME280;36875;49.468;11.200;2022-07-29T05:37:40;97813.91;;;23.95;45.55
50057;BME280;36875;49.468;11.200;2022-07-29T05:40:07;97818.72;;;23.98;45.51
50057;BME280;36875;49.468;11.200;2022-07-29T05:42:32;97817.25;;;24.00;45.41
50057;BME280;36875;49.468;11.200;2022-07-29T05:44:59;97816.56;;;24.03;45.68
50057;BME280;36875;49.468;11.200;2022-07-29T05:47:25;97818.19;;;24.04;45.54
50057;BME280;36875;49.468;11.200;2022-07-29T05:49:51;97821.84;;;24.09;45.83
50057;BME280;36875;49.468;11.200;2022-07-29T05:52:17;97820.72;;;24.10;45.51
50057;BME280;36875;49.468;11.200;2022-07-29T05:54:44;97823.56;;;24.13;45.67
50057;BME280;36875;49.468;11.200;2022-07-29T05:57:15;97820.81;;;24.13;45.49
50057;BME280;36875;49.468;11.200;2022-07-29T05:59:40;97829.19;;;24.17;45.51
50057;BME280;36875;49.468;11.200;2022-07-29T06:02:06;97818.69;;;24.19;45.68
50057;BME280;36875;49.468;11.200;2022-07-29T06:04:31;97821.75;;;24.17;45.67
50057;BME280;36875;49.468;11.200;2022-07-29T06:06:57;97819.94;;;24.21;45.61
50057;BME280;36875;49.468;11.200;2022-07-29T06:09:23;97813.28;;;24.22;45.39
50057;BME280;36875;49.468;11.200;2022-07-29T06:11:50;97824.75;;;24.24;45.48
50057;BME280;36875;49.468;11.200;2022-07-29T06:14:16;97819.25;;;24.24;45.26
50057;BME280;36875;49.468;11.200;2022-07-29T06:16:41;97825.56;;;24.25;45.18
50057;BME280;36875;49.468;11.200;2022-07-29T06:19:07;97826.81;;;24.28;45.46
50057;BME280;36875;49.468;11.200;2022-07-29T06:21:33;97822.13;;;24.28;45.25
50057;BME280;36875;49.468;11.200;2022-07-29T06:23:59;97818.22;;;24.29;45.07
50057;BME280;36875;49.468;11.200;2022-07-29T06:26:24;97817.09;;;24.30;45.32
50057;BME280;36875;49.468;11.200;2022-07-29T06:28:51;97816.75;;;24.32;45.37
50057;BME280;36875;49.468;11.200;2022-07-29T06:31:17;97815.59;;;24.33;45.26
50057;BME280;36875;49.468;11.200;2022-07-29T06:33:43;97813.63;;;24.33;45.43
50057;BME280;36875;49.468;11.200;2022-07-29T06:36:08;97808.94;;;24.34;45.43
50057;BME280;36875;49.468;11.200;2022-07-29T06:38:34;97814.09;;;24.35;45.52
50057;BME280;36875;49.468;11.200;2022-07-29T06:41:00;97814.91;;;24.36;45.44
50057;BME280;36875;49.468;11.200;2022-07-29T06:43:33;97820.41;;;24.36;45.50
50057;BME280;36875;49.468;11.200;2022-07-29T06:46:02;97812.03;;;24.32;45.30
50057;BME280;36875;49.468;11.200;2022-07-29T06:48:28;97810.19;;;24.36;45.42
50057;BME280;36875;49.468;11.200;2022-07-29T06:50:54;97812.94;;;24.36;45.39
50057;BME280;36875;49.468;11.200;2022-07-29T06:53:20;97814.44;;;24.34;45.46
50057;BME280;36875;49.468;11.200;2022-07-29T06:55:45;97814.00;;;24.32;45.61
50057;BME280;36875;49.468;11.200;2022-07-29T06:58:11;97814.78;;;24.32;45.64
50057;BME280;36875;49.468;11.200;2022-07-29T07:00:37;97814.44;;;24.34;45.55
50057;BME280;36875;49.468;11.200;2022-07-29T07:03:04;97817.31;;;24.37;45.50
50057;BME280;36875;49.468;11.200;2022-07-29T07:05:30;97802.38;;;24.26;45.38
50057;BME280;36875;49.468;11.200;2022-07-29T07:07:55;97819.00;;;24.30;45.38
50057;BME280;36875;49.468;11.200;2022-07-29T07:10:21;97827.63;;;24.28;45.59
50057;BME280;36875;49.468;11.200;2022-07-29T07:12:46;97827.97;;;24.27;45.56
50057;BME280;36875;49.468;11.200;2022-07-29T07:15:12;97820.84;;;24.25;45.66
50057;BME280;36875;49.468;11.200;2022-07-29T07:17:38;97818.44;;;24.24;45.57
50057;BME280;36875;49.468;11.200;2022-07-29T07:20:06;97829.88;;;24.26;45.51
50057;BME280;36875;49.468;11.200;2022-07-29T07:22:32;97827.97;;;24.27;45.80
50057;BME280;36875;49.468;11.200;2022-07-29T07:24:57;97823.25;;;24.27;45.83
50057;BME280;36875;49.468;11.200;2022-07-29T07:27:23;97824.06;;;24.28;45.39
50057;BME280;36875;49.468;11.200;2022-07-29T07:29:48;97827.63;;;24.28;45.83
50057;BME280;36875;49.468;11.200;2022-07-29T07:32:14;97822.13;;;24.28;45.59
50057;BME280;36875;49.468;11.200;2022-07-29T07:34:41;97818.22;;;24.29;45.73
50057;BME280;36875;49.468;11.200;2022-07-29T07:37:08;97819.84;;;24.30;45.37
50057;BME280;36875;49.468;11.200;2022-07-29T07:39:34;97819.84;;;24.30;45.74
50057;BME280;36875;49.468;11.200;2022-07-29T07:42:00;97816.75;;;24.32;45.46
50057;BME280;36875;49.468;11.200;2022-07-29T07:44:25;97809.16;;;24.29;45.39
50057;BME280;36875;49.468;11.200;2022-07-29T07:46:51;97811.91;;;24.29;45.63
50057;BME280;36875;49.468;11.200;2022-07-29T07:49:17;97806.88;;;24.31;45.43
50057;BME280;36875;49.468;11.200;2022-07-29T07:51:43;97812.50;;;24.34;45.35
50057;BME280;36875;49.468;11.200;2022-07-29T07:54:10;97807.44;;;24.36;45.35
50057;BME280;36875;49.468;11.200;2022-07-29T07:56:35;97780.06;;;24.15;45.62
50057;BME280;36875;49.468;11.200;2022-07-29T07:59:01;97805.84;;;24.35;45.63
50057;BME280;36875;49.468;11.200;2022-07-29T08:01:27;97794.13;;;24.26;45.54
50057;BME280;36875;49.468;11.200;2022-07-29T08:03:53;97801.03;;;24.32;45.59
50057;BME280;36875;49.468;11.200;2022-07-29T08:06:18;97803.34;;;24.30;45.44
50057;BME280;36875;49.468;11.200;2022-07-29T08:08:44;97798.16;;;24.29;45.50
50057;BME280;36875;49.468;11.200;2022-07-29T08:11:11;97804.81;;;24.28;45.49
50057;BME280;36875;49.468;11.200;2022-07-29T08:13:37;97800.47;;;24.27;45.91
50057;BME280;36875;49.468;11.200;2022-07-29T08:16:03;97796.88;;;24.26;45.63
50057;BME280;36875;49.468;11.200;2022-07-29T08:18:41;97796.88;;;24.26;45.39
50057;BME280;36875;49.468;11.200;2022-07-29T08:21:07;97794.75;;;24.32;45.32
50057;BME280;36875;49.468;11.200;2022-07-29T08:23:32;97780.75;;;24.24;45.69
50057;BME280;36875;49.468;11.200;2022-07-29T08:26:04;97790.50;;;24.34;45.69
50057;BME280;36875;49.468;11.200;2022-07-29T08:28:31;97794.75;;;24.32;45.61
50057;BME280;36875;49.468;11.200;2022-07-29T08:30:57;97787.97;;;24.29;45.57
50057;BME280;36875;49.468;11.200;2022-07-29T08:33:23;97788.31;;;24.28;45.61
50057;BME280;36875;49.468;11.200;2022-07-29T08:35:48;97790.72;;;24.29;45.43
50057;BME280;36875;49.468;11.200;2022-07-29T08:38:15;97789.34;;;24.35;45.28
50057;BME280;36875;49.468;11.200;2022-07-29T08:40:41;97794.16;;;24.38;45.64
50057;BME280;36875;49.468;11.200;2022-07-29T08:43:07;97791.06;;;24.40;45.50
50057;BME280;36875;49.468;11.200;2022-07-29T08:45:42;97793.47;;;24.41;45.12
50057;BME280;36875;49.468;11.200;2022-07-29T08:48:08;97790.72;;;24.41;45.54
50057;BME280;36875;49.468;11.200;2022-07-29T08:50:34;97789.56;;;24.42;45.39
50057;BME280;36875;49.468;11.200;2022-07-29T08:53:00;97786.81;;;24.42;45.56
50057;BME280;36875;49.468;11.200;2022-07-29T08:55:26;97787.31;;;24.44;45.40
50057;BME280;36875;49.468;11.200;2022-07-29T08:57:52;97786.13;;;24.46;45.25
50057;BME280;36875;49.468;11.200;2022-07-29T09:00:18;97778.69;;;24.46;45.62
50057;BME280;36875;49.468;11.200;2022-07-29T09:02:47;97780.63;;;24.46;45.43
50057;BME280;36875;49.468;11.200;2022-07-29T09:05:17;97782.25;;;24.47;45.25
50057;BME280;36875;49.468;11.200;2022-07-29T09:07:43;97774.00;;;24.47;45.28
50057;BME280;36875;49.468;11.200;2022-07-29T09:10:10;97780.31;;;24.47;45.27
50057;BME280;36875;49.468;11.200;2022-07-29T09:12:36;97777.56;;;24.47;45.33
50057;BME280;36875;49.468;11.200;2022-07-29T09:15:01;97772.03;;;24.47;45.29
50057;BME280;36875;49.468;11.200;2022-07-29T09:17:40;97773.19;;;24.46;45.54
50057;BME280;36875;49.468;11.200;2022-07-29T09:20:11;97781.09;;;24.48;45.25
50057;BME280;36875;49.468;11.200;2022-07-29T09:22:37;97770.09;;;24.48;45.50
50057;BME280;36875;49.468;11.200;2022-07-29T09:25:03;97762.88;;;24.43;45.68
50057;BME280;36875;49.468;11.200;2022-07-29T09:27:29;97770.88;;;24.48;45.21
50057;BME280;36875;49.468;11.200;2022-07-29T09:29:59;97779.13;;;24.48;45.41
50057;BME280;36875;49.468;11.200;2022-07-29T09:32:25;97767.34;;;24.48;45.23
50057;BME280;36875;49.468;11.200;2022-07-29T09:35:16;97765.75;;;24.47;45.59
50057;BME280;36875;49.468;11.200;2022-07-29T09:37:42;97767.34;;;24.48;45.38
50057;BME280;36875;49.468;11.200;2022-07-29T09:40:12;97768.97;;;24.49;45.34
50057;BME280;36875;49.468;11.200;2022-07-29T09:42:38;97761.84;;;24.48;45.50
50057;BME280;36875;49.468;11.200;2022-07-29T09:45:04;97760.72;;;24.49;45.38
50057;BME280;36875;49.468;11.200;2022-07-29T09:47:41;97759.88;;;24.48;45.53
50057;BME280;36875;49.468;11.200;2022-07-29T09:50:07;97758.28;;;24.47;45.36
50057;BME280;36875;49.468;11.200;2022-07-29T09:52:44;97769.19;;;24.43;45.17
50057;BME280;36875;49.468;11.200;2022-07-29T09:55:11;97751.19;;;24.34;45.67
50057;BME280;36875;49.468;11.200;2022-07-29T09:57:37;97764.03;;;24.42;45.36
50057;BME280;36875;49.468;11.200;2022-07-29T10:00:04;97761.28;;;24.42;45.41
50057;BME280;36875;49.468;11.200;2022-07-29T10:02:35;97761.28;;;24.42;45.59
50057;BME280;36875;49.468;11.200;2022-07-29T10:05:02;97771.47;;;24.41;45.61
50057;BME280;36875;49.468;11.200;2022-07-29T10:07:45;97771.47;;;24.41;45.42
50057;BME280;36875;49.468;11.200;2022-07-29T10:10:11;97766.78;;;24.42;45.76
50057;BME280;36875;49.468;11.200;2022-07-29T10:12:52;97762.88;;;24.43;45.58
50057;BME280;36875;49.468;11.200;2022-07-29T10:15:19;97751.88;;;24.43;45.35
50057;BME280;36875;49.468;11.200;2022-07-29T10:17:46;97749.03;;;24.39;45.73
50057;BME280;36875;49.468;11.200;2022-07-29T10:20:13;97743.63;;;24.43;45.58
50057;BME280;36875;49.468;11.200;2022-07-29T10:22:39;97755.75;;;24.42;45.68
50057;BME280;36875;49.468;11.200;2022-07-29T10:25:07;97764.81;;;24.42;45.72
50057;BME280;36875;49.468;11.200;2022-07-29T10:27:34;97755.75;;;24.42;45.65
50057;BME280;36875;49.468;11.200;2022-07-29T10:30:00;97753.81;;;24.42;45.46
50057;BME280;36875;49.468;11.200;2022-07-29T10:32:39;97758.19;;;24.43;45.64
50057;BME280;36875;49.468;11.200;2022-07-29T10:35:17;97751.06;;;24.42;45.54
50057;BME280;36875;49.468;11.200;2022-07-29T10:38:07;97746.38;;;24.43;45.72
50057;BME280;36875;49.468;11.200;2022-07-29T10:40:45;97735.38;;;24.43;45.75
50057;BME280;36875;49.468;11.200;2022-07-29T10:43:36;97733.75;;;24.42;45.71
50057;BME280;36875;49.468;11.200;2022-07-29T10:46:04;97741.22;;;24.41;45.31
50057;BME280;36875;49.468;11.200;2022-07-29T10:48:29;97738.94;;;24.43;45.90
50057;BME280;36875;49.468;11.200;2022-07-29T10:50:57;97731.00;;;24.42;45.70
50057;BME280;36875;49.468;11.200;2022-07-29T10:53:24;97734.94;;;24.41;45.95
50057;BME280;36875;49.468;11.200;2022-07-29T10:55:52;97722.41;;;24.31;45.82
50057;BME280;36875;49.468;11.200;2022-07-29T10:58:18;97735.25;;;24.39;45.48
50057;BME280;36875;49.468;11.200;2022-07-29T11:00:45;97727.03;;;24.39;45.86
50057;BME280;36875;49.468;11.200;2022-07-29T11:03:42;97718.75;;;24.39;45.67
50057;BME280;36875;49.468;11.200;2022-07-29T11:06:09;97721.84;;;24.38;45.61
50057;BME280;36875;49.468;11.200;2022-07-29T11:08:36;97715.56;;;24.37;45.56
50057;BME280;36875;49.468;11.200;2022-07-29T11:11:32;97693.34;;;24.30;45.55
50057;BME280;36875;49.468;11.200;2022-07-29T11:13:58;97707.19;;;24.34;45.63
50057;BME280;36875;49.468;11.200;2022-07-29T11:16:23;97719.44;;;24.36;45.86
50057;BME280;36875;49.468;11.200;2022-07-29T11:19:20;97723.31;;;24.35;45.87
50057;BME280;36875;49.468;11.200;2022-07-29T11:21:46;97717.03;;;24.35;45.77
50057;BME280;36875;49.468;11.200;2022-07-29T11:24:20;97713.50;;;24.34;45.89
50057;BME280;36875;49.468;11.200;2022-07-29T11:27:08;97711.41;;;24.31;45.55
50057;BME280;36875;49.468;11.200;2022-07-29T11:29:35;97717.38;;;24.33;45.75
50057;BME280;36875;49.468;11.200;2022-07-29T11:32:09;97718.19;;;24.34;45.82
50057;BME280;36875;49.468;11.200;2022-07-29T11:34:34;97713.38;;;24.31;45.86
50057;BME280;36875;49.468;11.200;2022-07-29T11:37:22;97713.03;;;24.32;45.42
50057;BME280;36875;49.468;11.200;2022-07-29T11:40:15;97709.13;;;24.33;45.59
50057;BME280;36875;49.468;11.200;2022-07-29T11:42:46;97711.41;;;24.31;45.84
50057;BME280;36875;49.468;11.200;2022-07-29T11:45:13;97712.25;;;24.32;45.92
50057;BME280;36875;49.468;11.200;2022-07-29T11:47:40;97701.94;;;24.29;45.92
50057;BME280;36875;49.468;11.200;2022-07-29T11:50:08;97697.09;;;24.25;45.59
50057;BME280;36875;49.468;11.200;2022-07-29T11:52:36;97707.88;;;24.31;45.56
50057;BME280;36875;49.468;11.200;2022-07-29T11:55:04;97694.69;;;24.24;45.88
50057;BME280;36875;49.468;11.200;2022-07-29T11:57:30;97697.91;;;24.26;45.79
50057;BME280;36875;49.468;11.200;2022-07-29T11:59:58;97705.59;;;24.33;45.87
50057;BME280;36875;49.468;11.200;2022-07-29T12:02:24;97694.34;;;24.25;45.64
50057;BME280;36875;49.468;11.200;2022-07-29T12:04:50;97687.50;;;24.32;45.88
50057;BME280;36875;49.468;11.200;2022-07-29T12:07:16;97688.75;;;24.34;45.80
50057;BME280;36875;49.468;11.200;2022-07-29T12:09:49;97687.94;;;24.34;45.72
50057;BME280;36875;49.468;11.200;2022-07-29T12:12:16;97679.31;;;24.35;45.88
50057;BME280;36875;49.468;11.200;2022-07-29T12:14:42;97679.31;;;24.35;46.27
50057;BME280;36875;49.468;11.200;2022-07-29T12:17:25;97673.38;;;24.33;46.07
50057;BME280;36875;49.468;11.200;2022-07-29T12:19:51;97683.81;;;24.40;46.25
50057;BME280;36875;49.468;11.200;2022-07-29T12:22:24;97669.50;;;24.34;46.45
50057;BME280;36875;49.468;11.200;2022-07-29T12:24:50;97673.59;;;24.40;46.15
50057;BME280;36875;49.468;11.200;2022-07-29T12:27:17;97677.97;;;24.41;46.36
50057;BME280;36875;49.468;11.200;2022-07-29T12:29:43;97667.31;;;24.40;45.97
50057;BME280;36875;49.468;11.200;2022-07-29T12:32:09;97661.81;;;24.40;46.33
50057;BME280;36875;49.468;11.200;2022-07-29T12:34:36;97648.84;;;24.40;46.35
50057;BME280;36875;49.468;11.200;2022-07-29T12:37:03;97645.97;;;24.37;46.66
50057;BME280;36875;49.468;11.200;2022-07-29T12:39:29;97656.75;;;24.42;46.54
50057;BME280;36875;49.468;11.200;2022-07-29T12:41:55;97661.47;;;24.41;46.26
50057;BME280;36875;49.468;11.200;2022-07-29T12:44:20;97658.72;;;24.41;46.66
50057;BME280;36875;49.468;11.200;2022-07-29T12:47:01;97664.22;;;24.41;46.72
50057;BME280;36875;49.468;11.200;2022-07-29T12:49:26;97656.41;;;24.43;47.07
50057;BME280;36875;49.468;11.200;2022-07-29T12:51:53;97659.16;;;24.43;46.79
50057;BME280;36875;49.468;11.200;2022-07-29T12:54:19;97658.03;;;24.44;47.18
50057;BME280;36875;49.468;11.200;2022-07-29T12:56:45;97656.84;;;24.46;46.83
50057;BME280;36875;49.468;11.200;2022-07-29T12:59:12;97654.09;;;24.46;46.95